sensor_id;sensor_type;location;lat;lon;timestamp;pressure;altitude;pressure_sealevel;temperature;humidity
67015;BME280;1033;52.560;13.374;2023-08-31T00:01:02;99985.50;;;16.59;87.57
67015;BME280;1033;52.560;13.374;2023-08-31T00:03:34;99990.56;;;16.45;88.73
67015;BME280;1033;52.560;13.374;2023-08-31T00:06:04;99987.88;;;16.50;88.67
67015;BME280;1033;52.560;13.374;2023-08-31T00:08:35;99989.47;;;16.46;89.25
67015;BME280;1033;52.560;13.374;2023-08-31T00:11:05;99991.16;;;16.52;88.91
67015;BME280;1033;52.560;13.374;2023-08-31T00:13:35;99992.81;;;16.53;88.90
67015;BME280;1033;52.560;13.374;2023-08-31T00:16:06;99988.38;;;16.47;89.18
67015;BME280;1033;52.560;13.374;2023-08-31T00:18:39;99987.34;;;16.53;88.86
67015;BME280;1033;52.560;13.374;2023-08-31T00:21:08;99992.22;;;16.51;89.06
67015;BME280;1033;52.560;13.374;2023-08-31T00:23:38;99997.16;;;16.49;89.58
67015;BME280;1033;52.560;13.374;2023-08-31T00:26:07;99992.53;;;16.49;89.58
67015;BME280;1033;52.560;13.374;2023-08-31T00:28:39;99983.44;;;16.39;90.38
67015;BME280;1033;52.560;13.374;2023-08-31T00:31:10;99983.88;;;16.26;91.23
67015;BME280;1033;52.560;13.374;2023-08-31T00:33:41;99976.19;;;16.23;91.92
67015;BME280;1033;52.560;13.374;2023-08-31T00:36:11;99971.84;;;16.27;91.42
67015;BME280;1033;52.560;13.374;2023-08-31T00:38:41;99967.53;;;16.31;91.68
67015;BME280;1033;52.560;13.374;2023-08-31T00:41:10;99969.31;;;16.15;92.72
67015;BME280;1033;52.560;13.374;2023-08-31T00:43:40;99965.44;;;16.06;93.56
67015;BME280;1033;52.560;13.374;2023-08-31T00:46:09;99976.78;;;16.25;92.55
67015;BME280;1033;52.560;13.374;2023-08-31T00:48:41;99985.03;;;16.35;92.29
67015;BME280;1033;52.560;13.374;2023-08-31T00:51:10;99980.88;;;16.27;92.86
67015;BME280;1033;52.560;13.374;2023-08-31T00:53:40;99983.84;;;16.21;93.63
67015;BME280;1033;52.560;13.374;2023-08-31T00:56:10;99966.81;;;16.08;94.67
67015;BME280;1033;52.560;13.374;2023-08-31T00:58:40;99968.41;;;16.04;95.17
67015;BME280;1033;52.560;13.374;2023-08-31T01:01:14;99982.75;;;15.90;96.56
67015;BME280;1033;52.560;13.374;2023-08-31T01:03:56;99980.91;;;15.95;96.94
67015;BME280;1033;52.560;13.374;2023-08-31T01:06:39;99975.78;;;16.04;96.15
67015;BME280;1033;52.560;13.374;2023-08-31T01:12:50;99983.53;;;15.85;97.79
67015;BME280;1033;52.560;13.374;2023-08-31T01:15:20;99992.00;;;15.89;98.60
67015;BME280;1033;52.560;13.374;2023-08-31T01:17:51;99990.06;;;15.84;99.20
67015;BME280;1033;52.560;13.374;2023-08-31T01:20:31;99996.38;;;15.90;99.68
67015;BME280;1033;52.560;13.374;2023-08-31T01:23:04;100003.16;;;15.82;100.00
67015;BME280;1033;52.560;13.374;2023-08-31T01:25:37;100005.19;;;15.70;100.00
67015;BME280;1033;52.560;13.374;2023-08-31T01:28:08;100000.25;;;15.67;100.00
67015;BME280;1033;52.560;13.374;2023-08-31T01:30:38;100004.31;;;15.64;100.00
67015;BME280;1033;52.560;13.374;2023-08-31T01:33:08;100013.38;;;15.70;100.00
67015;BME280;1033;52.560;13.374;2023-08-31T01:35:42;100012.06;;;15.73;100.00
67015;BME280;1033;52.560;13.374;2023-08-31T01:38:12;100013.91;;;15.67;100.00
67015;BME280;1033;52.560;13.374;2023-08-31T01:40:52;100021.56;;;15.70;100.00
67015;BME280;1033;52.560;13.374;2023-08-31T01:43:23;100018.66;;;15.55;100.00
67015;BME280;1033;52.560;13.374;2023-08-31T01:45:54;100017.66;;;15.61;100.00
67015;BME280;1033;52.560;13.374;2023-08-31T01:48:23;100022.50;;;15.59;100.00
67015;BME280;1033;52.560;13.374;2023-08-31T01:50:52;100023.56;;;15.53;100.00
67015;BME280;1033;52.560;13.374;2023-08-31T01:53:22;100021.19;;;15.40;100.00
67015;BME280;1033;52.560;13.374;2023-08-31T01:55:53;100018.72;;;15.38;100.00
67015;BME280;1033;52.560;13.374;2023-08-31T01:58:23;100021.88;;;15.30;100.00
67015;BME280;1033;52.560;13.374;2023-08-31T02:00:52;100021.78;;;15.20;100.00
67015;BME280;1033;52.560;13.374;2023-08-31T02:03:21;100018.09;;;15.09;100.00
67015;BME280;1033;52.560;13.374;2023-08-31T02:05:51;100026.81;;;15.11;100.00
67015;BME280;1033;52.560;13.374;2023-08-31T02:08:21;100025.63;;;15.02;100.00
67015;BME280;1033;52.560;13.374;2023-08-31T02:10:52;100044.63;;;14.97;100.00
67015;BME280;1033;52.560;13.374;2023-08-31T02:13:23;100040.75;;;14.93;100.00
67015;BME280;1033;52.560;13.374;2023-08-31T02:15:53;100040.69;;;14.88;100.00
67015;BME280;1033;52.560;13.374;2023-08-31T02:18:23;100049.97;;;14.70;100.00
67015;BME280;1033;52.560;13.374;2023-08-31T02:20:52;100059.88;;;14.60;100.00
67015;BME280;1033;52.560;13.374;2023-08-31T02:23:22;100060.78;;;14.49;100.00
67015;BME280;1033;52.560;13.374;2023-08-31T02:25:53;100045.09;;;14.39;100.00
67015;BME280;1033;52.560;13.374;2023-08-31T02:28:22;100049.03;;;14.31;100.00
67015;BME280;1033;52.560;13.374;2023-08-31T02:30:59;100053.41;;;14.32;100.00
67015;BME280;1033;52.560;13.374;2023-08-31T02:33:30;100047.44;;;14.19;100.00
67015;BME280;1033;52.560;13.374;2023-08-31T02:36:00;100039.03;;;14.20;100.00
67015;BME280;1033;52.560;13.374;2023-08-31T02:38:29;100053.16;;;14.34;100.00
67015;BME280;1033;52.560;13.374;2023-08-31T02:40:59;100056.06;;;14.27;100.00
67015;BME280;1033;52.560;13.374;2023-08-31T02:43:29;100059.00;;;14.26;100.00
67015;BME280;1033;52.560;13.374;2023-08-31T02:46:01;100056.69;;;14.18;100.00
67015;BME280;1033;52.560;13.374;2023-08-31T02:48:33;100061.50;;;14.27;100.00
67015;BME280;1033;52.560;13.374;2023-08-31T02:51:02;100063.94;;;14.29;100.00
67015;BME280;1033;52.560;13.374;2023-08-31T02:53:32;100060.16;;;14.13;100.00
67015;BME280;1033;52.560;13.374;2023-08-31T02:56:03;100062.97;;;14.18;100.00
67015;BME280;1033;52.560;13.374;2023-08-31T02:58:32;100064.69;;;14.08;100.00
67015;BME280;1033;52.560;13.374;2023-08-31T03:01:08;100060.16;;;14.13;100.00
67015;BME280;1033;52.560;13.374;2023-08-31T03:03:43;100064.41;;;14.09;100.00
67015;BME280;1033;52.560;13.374;2023-08-31T03:06:14;100070.88;;;14.03;100.00
67015;BME280;1033;52.560;13.374;2023-08-31T03:08:44;100058.31;;;14.02;100.00
67015;BME280;1033;52.560;13.374;2023-08-31T03:11:15;100063.25;;;14.05;100.00
67015;BME280;1033;52.560;13.374;2023-08-31T03:13:44;100072.13;;;14.12;100.00
67015;BME280;1033;52.560;13.374;2023-08-31T03:16:13;100077.28;;;14.14;100.00
67015;BME280;1033;52.560;13.374;2023-08-31T03:18:43;100071.34;;;14.00;100.00
67015;BME280;1033;52.560;13.374;2023-08-31T03:21:13;100076.78;;;14.00;100.00
67015;BME280;1033;52.560;13.374;2023-08-31T03:23:42;100071.59;;;13.99;100.00
67015;BME280;1033;52.560;13.374;2023-08-31T03:26:13;100069.66;;;13.99;100.00
67015;BME280;1033;52.560;13.374;2023-08-31T03:28:44;100086.00;;;13.99;100.00
67015;BME280;1033;52.560;13.374;2023-08-31T03:31:13;100082.50;;;13.87;100.00
67015;BME280;1033;52.560;13.374;2023-08-31T03:33:42;100086.81;;;14.00;100.00
67015;BME280;1033;52.560;13.374;2023-08-31T03:36:12;100085.19;;;13.99;100.00
67015;BME280;1033;52.560;13.374;2023-08-31T03:38:41;100088.72;;;13.99;100.00
67015;BME280;1033;52.560;13.374;2023-08-31T03:41:11;100085.34;;;13.92;100.00
67015;BME280;1033;52.560;13.374;2023-08-31T03:43:42;100082.91;;;13.79;100.00
67015;BME280;1033;52.560;13.374;2023-08-31T03:46:11;100095.97;;;13.93;100.00
67015;BME280;1033;52.560;13.374;2023-08-31T03:48:40;100090.28;;;13.95;100.00
67015;BME280;1033;52.560;13.374;2023-08-31T03:51:10;100082.41;;;14.10;100.00
67015;BME280;1033;52.560;13.374;2023-08-31T03:53:39;100088.16;;;14.14;100.00
67015;BME280;1033;52.560;13.374;2023-08-31T03:56:09;100099.31;;;14.12;100.00
67015;BME280;1033;52.560;13.374;2023-08-31T03:58:41;100102.50;;;14.09;100.00
67015;BME280;1033;52.560;13.374;2023-08-31T04:01:10;100100.06;;;14.24;100.00
67015;BME280;1033;52.560;13.374;2023-08-31T04:03:42;100101.41;;;14.22;100.00
67015;BME280;1033;52.560;13.374;2023-08-31T04:06:12;100110.38;;;14.22;100.00
67015;BME280;1033;52.560;13.374;2023-08-31T04:08:41;100112.75;;;14.19;100.00
67015;BME280;1033;52.560;13.374;2023-08-31T04:11:10;100106.00;;;14.21;100.00
67015;BME280;1033;52.560;13.374;2023-08-31T04:14:08;100110.66;;;14.09;100.00
67015;BME280;1033;52.560;13.374;2023-08-31T04:16:37;100115.47;;;14.19;100.00
67015;BME280;1033;52.560;13.374;2023-08-31T04:19:06;100113.84;;;14.18;100.00
67015;BME280;1033;52.560;13.374;2023-08-31T04:21:35;100117.78;;;14.10;100.00
67015;BME280;1033;52.560;13.374;2023-08-31T04:24:06;100117.53;;;14.12;100.00
67015;BME280;1033;52.560;13.374;2023-08-31T04:26:35;100119.94;;;14.08;100.00
67015;BME280;1033;52.560;13.374;2023-08-31T04:29:04;100114.72;;;14.07;100.00
67015;BME280;1033;52.560;13.374;2023-08-31T04:31:35;100119.94;;;14.08;100.00
67015;BME280;1033;52.560;13.374;2023-08-31T04:34:06;100120.81;;;14.14;100.00
67015;BME280;1033;52.560;13.374;2023-08-31T04:36:35;100120.34;;;14.17;100.00
67015;BME280;1033;52.560;13.374;2023-08-31T04:39:04;100127.78;;;14.21;100.00
67015;BME280;1033;52.560;13.374;2023-08-31T04:41:35;100123.81;;;14.12;100.00
67015;BME280;1033;52.560;13.374;2023-08-31T04:44:04;100133.00;;;14.23;100.00
67015;BME280;1033;52.560;13.374;2023-08-31T04:46:35;100128.94;;;14.25;100.00
67015;BME280;1033;52.560;13.374;2023-08-31T04:49:04;100125.19;;;14.15;100.00
67015;BME280;1033;52.560;13.374;2023-08-31T04:51:35;100131.56;;;14.20;100.00
67015;BME280;1033;52.560;13.374;2023-08-31T04:54:07;100131.56;;;14.20;100.00
67015;BME280;1033;52.560;13.374;2023-08-31T04:56:37;100137.00;;;14.20;100.00
67015;BME280;1033;52.560;13.374;2023-08-31T04:59:06;100137.41;;;14.12;100.00
67015;BME280;1033;52.560;13.374;2023-08-31T05:01:37;100133.22;;;14.21;100.00
67015;BME280;1033;52.560;13.374;2023-08-31T05:04:06;100142.53;;;14.25;100.00
67015;BME280;1033;52.560;13.374;2023-08-31T05:06:36;100132.81;;;14.29;100.00
67015;BME280;1033;52.560;13.374;2023-08-31T05:09:05;100137.69;;;14.27;100.00
67015;BME280;1033;52.560;13.374;2023-08-31T05:11:35;100132.06;;;14.17;100.00
67015;BME280;1033;52.560;13.374;2023-08-31T05:14:04;100137.28;;;14.35;100.00
67015;BME280;1033;52.560;13.374;2023-08-31T05:16:33;100137.69;;;14.56;100.00
67015;BME280;1033;52.560;13.374;2023-08-31T05:19:04;100139.91;;;14.59;100.00
67015;BME280;1033;52.560;13.374;2023-08-31T05:21:34;100134.63;;;14.69;100.00
67015;BME280;1033;52.560;13.374;2023-08-31T05:24:03;100130.50;;;14.66;100.00
67015;BME280;1033;52.560;13.374;2023-08-31T05:26:32;100138.56;;;14.78;100.00
67015;BME280;1033;52.560;13.374;2023-08-31T05:29:02;100141.22;;;14.90;100.00
67015;BME280;1033;52.560;13.374;2023-08-31T05:31:32;100156.25;;;14.92;100.00
67015;BME280;1033;52.560;13.374;2023-08-31T05:34:03;100153.44;;;14.87;100.00
67015;BME280;1033;52.560;13.374;2023-08-31T05:36:33;100157.41;;;14.79;100.00
67015;BME280;1033;52.560;13.374;2023-08-31T05:39:02;100160.38;;;14.78;100.00
67015;BME280;1033;52.560;13.374;2023-08-31T05:41:32;100168.44;;;14.73;100.00
67015;BME280;1033;52.560;13.374;2023-08-31T05:44:02;100166.78;;;14.72;100.00
67015;BME280;1033;52.560;13.374;2023-08-31T05:46:31;100174.56;;;14.80;100.00
67015;BME280;1033;52.560;13.374;2023-08-31T05:49:01;100183.56;;;14.81;100.00
67015;BME280;1033;52.560;13.374;2023-08-31T05:51:31;100174.56;;;14.80;100.00
67015;BME280;1033;52.560;13.374;2023-08-31T05:54:00;100180.41;;;14.72;100.00
67015;BME280;1033;52.560;13.374;2023-08-31T05:56:31;100186.44;;;14.74;100.00
67015;BME280;1033;52.560;13.374;2023-08-31T05:59:00;100181.91;;;14.79;100.00
67015;BME280;1033;52.560;13.374;2023-08-31T06:01:30;100185.38;;;14.92;100.00
67015;BME280;1033;52.560;13.374;2023-08-31T06:03:59;100183.56;;;14.97;100.00
67015;BME280;1033;52.560;13.374;2023-08-31T06:06:28;100181.50;;;15.04;100.00
67015;BME280;1033;52.560;13.374;2023-08-31T06:08:59;100185.31;;;15.03;100.00
67015;BME280;1033;52.560;13.374;2023-08-31T06:11:28;100190.56;;;15.27;100.00
67015;BME280;1033;52.560;13.374;2023-08-31T06:13:57;100202.13;;;15.34;100.00
67015;BME280;1033;52.560;13.374;2023-08-31T06:16:27;100198.81;;;15.32;100.00
67015;BME280;1033;52.560;13.374;2023-08-31T06:18:56;100199.41;;;15.34;100.00
67015;BME280;1033;52.560;13.374;2023-08-31T06:21:25;100205.09;;;15.32;100.00
67015;BME280;1033;52.560;13.374;2023-08-31T06:23:54;100211.63;;;15.31;100.00
67015;BME280;1033;52.560;13.374;2023-08-31T06:26:25;100208.06;;;15.31;100.00
67015;BME280;1033;52.560;13.374;2023-08-31T06:28:54;100206.91;;;15.27;100.00
67015;BME280;1033;52.560;13.374;2023-08-31T06:31:23;100215.84;;;15.39;100.00
67015;BME280;1033;52.560;13.374;2023-08-31T06:33:53;100218.81;;;15.54;100.00
67015;BME280;1033;52.560;13.374;2023-08-31T06:36:23;100220.44;;;15.72;100.00
67015;BME280;1033;52.560;13.374;2023-08-31T06:38:52;100212.47;;;15.70;100.00
67015;BME280;1033;52.560;13.374;2023-08-31T06:41:21;100219.69;;;15.59;100.00
67015;BME280;1033;52.560;13.374;2023-08-31T06:44:08;100224.69;;;15.84;100.00
67015;BME280;1033;52.560;13.374;2023-08-31T06:46:37;100218.34;;;16.00;100.00
67015;BME280;1033;52.560;13.374;2023-08-31T06:49:07;100229.00;;;16.24;100.00
67015;BME280;1033;52.560;13.374;2023-08-31T06:51:36;100232.91;;;16.33;99.16
67015;BME280;1033;52.560;13.374;2023-08-31T06:54:06;100236.72;;;16.32;98.46
67015;BME280;1033;52.560;13.374;2023-08-31T06:56:35;100233.03;;;16.43;97.65
67015;BME280;1033;52.560;13.374;2023-08-31T06:59:05;100245.72;;;16.54;97.49
67015;BME280;1033;52.560;13.374;2023-08-31T07:01:36;100240.50;;;16.74;94.76
67015;BME280;1033;52.560;13.374;2023-08-31T07:04:06;100242.22;;;16.85;93.44
67015;BME280;1033;52.560;13.374;2023-08-31T07:06:36;100239.53;;;16.90;93.12
67015;BME280;1033;52.560;13.374;2023-08-31T07:09:05;100246.63;;;16.86;93.25
67015;BME280;1033;52.560;13.374;2023-08-31T07:11:36;100244.09;;;16.80;93.97
67015;BME280;1033;52.560;13.374;2023-08-31T07:14:05;100249.44;;;16.65;93.64
67015;BME280;1033;52.560;13.374;2023-08-31T07:16:36;100246.00;;;16.31;93.67
67015;BME280;1033;52.560;13.374;2023-08-31T07:19:06;100250.97;;;16.34;94.07
67015;BME280;1033;52.560;13.374;2023-08-31T07:21:35;100252.19;;;16.21;92.89
67015;BME280;1033;52.560;13.374;2023-08-31T07:24:04;100252.69;;;15.96;94.03
67015;BME280;1033;52.560;13.374;2023-08-31T07:26:33;100262.63;;;16.07;94.22
67015;BME280;1033;52.560;13.374;2023-08-31T07:29:06;100265.81;;;15.99;94.30
67015;BME280;1033;52.560;13.374;2023-08-31T07:31:36;100270.88;;;16.13;93.92
67015;BME280;1033;52.560;13.374;2023-08-31T07:34:06;100258.97;;;16.19;93.16
67015;BME280;1033;52.560;13.374;2023-08-31T07:36:35;100271.78;;;16.40;92.94
67015;BME280;1033;52.560;13.374;2023-08-31T07:39:04;100273.53;;;16.51;90.76
67015;BME280;1033;52.560;13.374;2023-08-31T07:41:33;100285.34;;;16.78;89.50
67015;BME280;1033;52.560;13.374;2023-08-31T07:44:03;100287.00;;;16.79;86.71
67015;BME280;1033;52.560;13.374;2023-08-31T07:46:33;100291.31;;;16.75;87.81
67015;BME280;1033;52.560;13.374;2023-08-31T07:49:04;100291.03;;;16.50;87.84
67015;BME280;1033;52.560;13.374;2023-08-31T07:51:34;100297.56;;;16.49;88.23
67015;BME280;1033;52.560;13.374;2023-08-31T07:54:03;100288.66;;;16.37;87.30
67015;BME280;1033;52.560;13.374;2023-08-31T07:56:32;100301.88;;;16.45;86.78
67015;BME280;1033;52.560;13.374;2023-08-31T07:59:02;100295.28;;;16.41;86.43
67015;BME280;1033;52.560;13.374;2023-08-31T08:01:38;100309.19;;;16.39;86.05
67015;BME280;1033;52.560;13.374;2023-08-31T08:04:10;100308.25;;;16.50;86.18
67015;BME280;1033;52.560;13.374;2023-08-31T08:06:39;100313.34;;;16.90;84.39
67015;BME280;1033;52.560;13.374;2023-08-31T08:09:09;100315.78;;;17.46;80.77
67015;BME280;1033;52.560;13.374;2023-08-31T08:11:38;100322.06;;;17.78;78.02
67015;BME280;1033;52.560;13.374;2023-08-31T08:14:07;100312.81;;;17.52;76.50
67015;BME280;1033;52.560;13.374;2023-08-31T08:16:37;100327.56;;;17.83;76.14
67015;BME280;1033;52.560;13.374;2023-08-31T08:19:35;100327.81;;;17.81;75.77
67015;BME280;1033;52.560;13.374;2023-08-31T08:22:04;100327.81;;;17.76;75.16
67015;BME280;1033;52.560;13.374;2023-08-31T08:24:34;100329.56;;;17.98;74.61
67015;BME280;1033;52.560;13.374;2023-08-31T08:27:03;100329.72;;;18.23;74.02
67015;BME280;1033;52.560;13.374;2023-08-31T08:29:33;100322.94;;;17.89;72.65
67015;BME280;1033;52.560;13.374;2023-08-31T08:32:02;100321.94;;;18.00;75.03
67015;BME280;1033;52.560;13.374;2023-08-31T08:34:31;100316.56;;;18.25;72.49
67015;BME280;1033;52.560;13.374;2023-08-31T08:37:02;100321.44;;;18.70;71.83
67015;BME280;1033;52.560;13.374;2023-08-31T08:39:31;100314.59;;;18.67;71.05
67015;BME280;1033;52.560;13.374;2023-08-31T08:42:04;100323.44;;;19.00;69.04
67015;BME280;1033;52.560;13.374;2023-08-31T08:44:36;100319.59;;;18.91;68.77
67015;BME280;1033;52.560;13.374;2023-08-31T08:47:07;100317.97;;;19.00;67.83
67015;BME280;1033;52.560;13.374;2023-08-31T08:49:36;100318.50;;;18.87;65.86
67015;BME280;1033;52.560;13.374;2023-08-31T08:52:07;100325.53;;;18.57;66.95
67015;BME280;1033;52.560;13.374;2023-08-31T08:54:36;100320.75;;;18.38;66.30
67015;BME280;1033;52.560;13.374;2023-08-31T08:57:07;100324.53;;;17.79;66.51
67015;BME280;1033;52.560;13.374;2023-08-31T08:59:36;100328.16;;;17.90;67.52
67015;BME280;1033;52.560;13.374;2023-08-31T09:02:06;100322.88;;;17.78;68.62
67015;BME280;1033;52.560;13.374;2023-08-31T09:04:36;100325.63;;;17.78;68.18
67015;BME280;1033;52.560;13.374;2023-08-31T09:07:07;100331.84;;;18.11;68.09
67015;BME280;1033;52.560;13.374;2023-08-31T09:09:49;100321.31;;;18.45;66.66
67015;BME280;1033;52.560;13.374;2023-08-31T09:12:19;100325.41;;;19.15;64.23
67015;BME280;1033;52.560;13.374;2023-08-31T09:15:00;100316.63;;;19.33;60.74
67015;BME280;1033;52.560;13.374;2023-08-31T09:17:38;100321.31;;;19.52;61.06
67015;BME280;1033;52.560;13.374;2023-08-31T09:20:09;100315.81;;;19.32;60.14
67015;BME280;1033;52.560;13.374;2023-08-31T09:22:43;100325.16;;;19.36;62.15
67015;BME280;1033;52.560;13.374;2023-08-31T09:25:12;100332.31;;;19.63;61.41
67015;BME280;1033;52.560;13.374;2023-08-31T09:27:43;100327.91;;;19.62;60.05
67015;BME280;1033;52.560;13.374;2023-08-31T09:30:13;100330.59;;;19.11;61.59
67015;BME280;1033;52.560;13.374;2023-08-31T09:32:42;100343.63;;;18.58;62.31
67015;BME280;1033;52.560;13.374;2023-08-31T09:35:12;100329.97;;;18.16;64.25
67015;BME280;1033;52.560;13.374;2023-08-31T09:37:59;100338.78;;;18.29;64.77
67015;BME280;1033;52.560;13.374;2023-08-31T09:40:30;100339.63;;;18.91;63.83
67015;BME280;1033;52.560;13.374;2023-08-31T09:42:59;100335.00;;;19.22;62.71
67015;BME280;1033;52.560;13.374;2023-08-31T09:45:30;100318.56;;;19.88;59.90
67015;BME280;1033;52.560;13.374;2023-08-31T09:48:14;100320.72;;;20.01;59.95
67015;BME280;1033;52.560;13.374;2023-08-31T09:50:44;100334.28;;;20.62;58.91
67015;BME280;1033;52.560;13.374;2023-08-31T09:53:16;100323.28;;;20.67;56.96
67015;BME280;1033;52.560;13.374;2023-08-31T09:55:47;100323.34;;;20.52;56.38
67015;BME280;1033;52.560;13.374;2023-08-31T09:58:19;100317.06;;;20.95;56.81
67015;BME280;1033;52.560;13.374;2023-08-31T10:00:50;100308.25;;;20.93;54.62
67015;BME280;1033;52.560;13.374;2023-08-31T10:03:21;100310.97;;;20.49;54.87
67015;BME280;1033;52.560;13.374;2023-08-31T10:05:51;100309.72;;;20.11;54.88
67015;BME280;1033;52.560;13.374;2023-08-31T10:08:21;100315.44;;;20.20;55.63
67015;BME280;1033;52.560;13.374;2023-08-31T10:10:52;100316.50;;;20.29;53.90
67015;BME280;1033;52.560;13.374;2023-08-31T10:13:25;100322.03;;;20.34;53.27
67015;BME280;1033;52.560;13.374;2023-08-31T10:15:56;100323.94;;;20.28;53.94
67015;BME280;1033;52.560;13.374;2023-08-31T10:18:25;100320.13;;;20.09;54.52
67015;BME280;1033;52.560;13.374;2023-08-31T10:20:55;100309.72;;;20.01;53.64
67015;BME280;1033;52.560;13.374;2023-08-31T10:23:27;100307.78;;;20.17;53.23
67015;BME280;1033;52.560;13.374;2023-08-31T10:26:01;100312.38;;;20.42;52.86
67015;BME280;1033;52.560;13.374;2023-08-31T10:28:40;100324.25;;;20.22;53.16
67015;BME280;1033;52.560;13.374;2023-08-31T10:31:15;100328.13;;;20.06;54.95
67015;BME280;1033;52.560;13.374;2023-08-31T10:33:45;100332.31;;;19.47;57.65
67015;BME280;1033;52.560;13.374;2023-08-31T10:36:16;100346.28;;;19.41;58.80
67015;BME280;1033;52.560;13.374;2023-08-31T10:38:47;100349.91;;;18.59;66.69
67015;BME280;1033;52.560;13.374;2023-08-31T10:41:34;100350.31;;;17.89;72.29
67015;BME280;1033;52.560;13.374;2023-08-31T10:44:21;100351.91;;;17.53;71.94
67015;BME280;1033;52.560;13.374;2023-08-31T10:46:52;100346.56;;;17.63;72.42
67015;BME280;1033;52.560;13.374;2023-08-31T10:49:23;100355.53;;;17.58;70.88
67015;BME280;1033;52.560;13.374;2023-08-31T10:51:55;100351.22;;;17.62;70.90
67015;BME280;1033;52.560;13.374;2023-08-31T10:54:29;100355.72;;;17.78;71.68
67015;BME280;1033;52.560;13.374;2023-08-31T10:57:04;100356.91;;;17.93;70.50
67015;BME280;1033;52.560;13.374;2023-08-31T10:59:48;100353.69;;;18.01;70.25
67015;BME280;1033;52.560;13.374;2023-08-31T11:02:33;100360.84;;;18.07;70.16
67015;BME280;1033;52.560;13.374;2023-08-31T11:05:07;100364.59;;;17.91;71.09
67015;BME280;1033;52.560;13.374;2023-08-31T11:07:37;100358.94;;;18.07;69.39
67015;BME280;1033;52.560;13.374;2023-08-31T11:10:12;100351.38;;;18.24;69.88
67015;BME280;1033;52.560;13.374;2023-08-31T11:12:43;100351.19;;;18.46;70.49
67015;BME280;1033;52.560;13.374;2023-08-31T11:15:14;100346.41;;;18.69;64.03
67015;BME280;1033;52.560;13.374;2023-08-31T11:17:44;100341.44;;;18.60;64.94
67015;BME280;1033;52.560;13.374;2023-08-31T11:20:16;100333.38;;;19.16;62.05
67015;BME280;1033;52.560;13.374;2023-08-31T11:22:46;100333.63;;;20.01;59.27
67015;BME280;1033;52.560;13.374;2023-08-31T11:25:19;100327.84;;;20.12;56.76
67015;BME280;1033;52.560;13.374;2023-08-31T11:27:54;100332.19;;;20.33;56.83
67015;BME280;1033;52.560;13.374;2023-08-31T11:30:25;100330.31;;;20.83;56.52
67015;BME280;1033;52.560;13.374;2023-08-31T11:32:55;100327.91;;;20.76;55.09
67015;BME280;1033;52.560;13.374;2023-08-31T11:35:24;100320.19;;;20.04;57.77
67015;BME280;1033;52.560;13.374;2023-08-31T11:38:02;100325.72;;;19.69;59.55
67015;BME280;1033;52.560;13.374;2023-08-31T11:40:33;100320.19;;;19.28;61.87
67015;BME280;1033;52.560;13.374;2023-08-31T11:43:04;100323.50;;;19.20;63.84
67015;BME280;1033;52.560;13.374;2023-08-31T11:45:35;100323.47;;;19.15;64.47
67015;BME280;1033;52.560;13.374;2023-08-31T11:48:06;100332.22;;;18.92;62.84
67015;BME280;1033;52.560;13.374;2023-08-31T11:50:36;100326.69;;;18.72;62.87
67015;BME280;1033;52.560;13.374;2023-08-31T11:53:07;100325.25;;;18.54;63.79
67015;BME280;1033;52.560;13.374;2023-08-31T11:55:50;100329.25;;;18.41;64.96
67015;BME280;1033;52.560;13.374;2023-08-31T11:58:21;100331.47;;;18.44;66.01
67015;BME280;1033;52.560;13.374;2023-08-31T12:00:56;100329.25;;;18.41;68.23
67015;BME280;1033;52.560;13.374;2023-08-31T12:03:26;100326.50;;;18.36;67.65
67015;BME280;1033;52.560;13.374;2023-08-31T12:14:23;100341.44;;;20.53;56.45
67015;BME280;1033;52.560;13.374;2023-08-31T12:16:59;100343.59;;;20.71;57.10
67015;BME280;1033;52.560;13.374;2023-08-31T12:19:30;100338.25;;;21.39;54.25
67015;BME280;1033;52.560;13.374;2023-08-31T12:22:00;100344.28;;;22.03;51.33
67015;BME280;1033;52.560;13.374;2023-08-31T12:24:36;100337.41;;;22.77;49.90
67015;BME280;1033;52.560;13.374;2023-08-31T12:27:07;100336.50;;;23.01;50.73
67015;BME280;1033;52.560;13.374;2023-08-31T12:29:38;100335.91;;;22.61;49.73
67015;BME280;1033;52.560;13.374;2023-08-31T12:32:07;100330.00;;;22.73;50.29
67015;BME280;1033;52.560;13.374;2023-08-31T12:34:36;100339.72;;;22.89;50.45
67015;BME280;1033;52.560;13.374;2023-08-31T12:37:06;100342.59;;;22.36;50.37
67015;BME280;1033;52.560;13.374;2023-08-31T12:39:35;100338.03;;;22.69;51.24
67015;BME280;1033;52.560;13.374;2023-08-31T12:42:05;100337.13;;;22.98;50.92
67015;BME280;1033;52.560;13.374;2023-08-31T12:44:50;100338.00;;;22.74;49.56
67015;BME280;1033;52.560;13.374;2023-08-31T12:47:20;100332.00;;;22.43;49.96
67015;BME280;1033;52.560;13.374;2023-08-31T12:49:49;100333.31;;;22.51;50.24
67015;BME280;1033;52.560;13.374;2023-08-31T12:52:19;100341.75;;;22.36;49.21
67015;BME280;1033;52.560;13.374;2023-08-31T12:54:48;100342.25;;;22.14;48.85
67015;BME280;1033;52.560;13.374;2023-08-31T12:57:18;100339.91;;;22.02;49.33
67015;BME280;1033;52.560;13.374;2023-08-31T12:59:47;100334.31;;;22.07;50.23
67015;BME280;1033;52.560;13.374;2023-08-31T13:02:18;100344.44;;;22.17;50.57
67015;BME280;1033;52.560;13.374;2023-08-31T13:04:48;100339.63;;;22.28;48.38
67015;BME280;1033;52.560;13.374;2023-08-31T13:07:18;100340.63;;;22.37;49.92
67015;BME280;1033;52.560;13.374;2023-08-31T13:09:47;100330.75;;;21.78;49.54
67015;BME280;1033;52.560;13.374;2023-08-31T13:12:17;100332.34;;;21.84;50.36
67015;BME280;1033;52.560;13.374;2023-08-31T13:14:47;100329.44;;;21.71;51.45
67015;BME280;1033;52.560;13.374;2023-08-31T13:17:18;100327.19;;;22.06;50.05
67015;BME280;1033;52.560;13.374;2023-08-31T13:19:48;100324.97;;;22.08;47.95